createdAt,value
2023-05-05T00:00:26.926Z,7.48
2023-05-05T00:01:26.965Z,7.59
2023-05-05T00:02:26.991Z,7.48
2023-05-05T00:03:27.043Z,7.57
2023-05-05T00:04:26.920Z,7.64
2023-05-05T00:05:26.966Z,7.42
2023-05-05T00:06:27.332Z,7.63
2023-05-05T00:07:26.958Z,7.54
2023-05-05T00:08:26.966Z,7.45
2023-05-05T00:09:26.949Z,7.46
2023-05-05T00:10:26.956Z,7.46
2023-05-05T00:11:27.874Z,7.41
2023-05-05T00:12:26.934Z,7.49
2023-05-05T00:13:26.969Z,7.38
2023-05-05T00:14:26.955Z,7.35
2023-05-05T00:15:26.963Z,7.42
2023-05-05T00:16:27.020Z,7.19
2023-05-05T00:17:27.030Z,7.28
2023-05-05T00:18:26.945Z,7.33
2023-05-05T00:19:26.946Z,7.34
2023-05-05T00:20:26.944Z,7.46
2023-05-05T00:21:26.959Z,7.35
2023-05-05T00:22:26.987Z,7.40
2023-05-05T00:23:26.972Z,7.41
2023-05-05T00:24:26.994Z,7.42
2023-05-05T00:25:26.985Z,7.23
2023-05-05T00:26:27.104Z,7.29
2023-05-05T00:27:27.006Z,7.29
2023-05-05T00:28:27.019Z,7.13
2023-05-05T00:29:27.075Z,7.22
2023-05-05T00:30:27.066Z,7.22
2023-05-05T00:31:27.095Z,7.28
2023-05-05T00:32:27.088Z,7.25
2023-05-05T00:33:27.032Z,7.18
2023-05-05T00:34:27.081Z,7.30
2023-05-05T00:35:27.109Z,7.17
2023-05-05T00:36:27.089Z,7.08
2023-05-05T00:37:27.098Z,7.00
2023-05-05T00:38:27.127Z,7.09
2023-05-05T00:39:27.099Z,7.07
2023-05-05T00:40:27.116Z,7.16
2023-05-05T00:41:27.100Z,7.13
2023-05-05T00:42:27.191Z,7.11
2023-05-05T00:43:27.112Z,7.06
2023-05-05T00:44:27.135Z,7.11
2023-05-05T00:45:27.143Z,6.95
2023-05-05T00:46:27.335Z,7.05
2023-05-05T00:47:27.187Z,6.92
2023-05-05T00:48:27.155Z,6.92
2023-05-05T00:49:27.204Z,6.79
2023-05-05T00:50:27.162Z,6.87
2023-05-05T00:51:27.173Z,6.80
2023-05-05T00:52:27.230Z,7.00
2023-05-05T00:53:27.210Z,6.95
2023-05-05T00:54:27.198Z,6.81
2023-05-05T00:55:27.205Z,6.99
2023-05-05T00:56:27.243Z,6.90
2023-05-05T00:57:27.229Z,6.85
2023-05-05T00:58:27.234Z,7.03
2023-05-05T00:59:27.265Z,6.93
2023-05-05T01:00:27.294Z,6.81
2023-05-05T01:01:27.396Z,6.90
2023-05-05T01:02:27.334Z,6.84
2023-05-05T01:03:27.320Z,6.84
2023-05-05T01:04:27.308Z,6.79
2023-05-05T01:05:27.311Z,6.71
2023-05-05T01:06:27.325Z,6.81
2023-05-05T01:07:27.312Z,6.68
2023-05-05T01:08:27.325Z,6.59
2023-05-05T01:09:27.327Z,6.71
2023-05-05T01:10:27.598Z,6.72
2023-05-05T01:11:27.385Z,6.63
2023-05-05T01:12:27.332Z,6.75
2023-05-05T01:13:27.332Z,6.72
2023-05-05T01:14:27.367Z,6.70
2023-05-05T01:15:27.380Z,6.72
2023-05-05T01:16:27.421Z,6.69
2023-05-05T01:17:27.382Z,6.53
2023-05-05T01:18:27.384Z,6.68
2023-05-05T01:19:27.378Z,6.70
2023-05-05T01:20:27.398Z,6.69
2023-05-05T01:21:27.432Z,6.76
2023-05-05T01:22:27.415Z,6.72
2023-05-05T01:23:27.416Z,6.60
2023-05-05T01:24:27.409Z,6.45
2023-05-05T01:25:27.429Z,6.56
2023-05-05T01:26:27.423Z,6.67
2023-05-05T01:27:27.462Z,6.57
2023-05-05T01:28:27.457Z,6.53
2023-05-05T01:29:27.486Z,6.41
2023-05-05T01:30:27.506Z,6.51
2023-05-05T01:31:27.508Z,6.61
2023-05-05T01:32:27.502Z,6.44
2023-05-05T01:33:27.506Z,6.51
2023-05-05T01:34:27.548Z,6.50
2023-05-05T01:35:27.507Z,6.49
2023-05-05T01:36:27.523Z,6.24
2023-05-05T01:37:27.557Z,6.46
2023-05-05T01:38:27.552Z,6.43
2023-05-05T01:39:27.571Z,6.39
2023-05-05T01:40:27.604Z,6.30
2023-05-05T01:41:27.616Z,6.35
2023-05-05T01:42:27.616Z,6.29
2023-05-05T01:43:27.614Z,6.43
2023-05-05T01:44:27.646Z,6.34
2023-05-05T01:45:27.663Z,6.21
2023-05-05T01:46:27.648Z,6.40
2023-05-05T01:47:27.687Z,6.44
2023-05-05T01:48:27.710Z,6.28
2023-05-05T01:49:27.697Z,6.34
2023-05-05T01:50:27.702Z,6.27
2023-05-05T01:51:27.737Z,6.30
2023-05-05T01:52:27.725Z,6.24
2023-05-05T01:53:27.723Z,6.32
2023-05-05T01:54:27.744Z,6.20
2023-05-05T01:55:27.794Z,6.09
2023-05-05T01:56:27.809Z,6.27
2023-05-05T01:57:27.812Z,6.33
2023-05-05T01:58:27.806Z,6.20
2023-05-05T01:59:27.836Z,6.24
2023-05-05T02:00:27.853Z,6.27
2023-05-05T02:01:27.888Z,6.07
2023-05-05T02:02:27.903Z,6.15
2023-05-05T02:03:27.885Z,6.15
2023-05-05T02:04:27.900Z,6.17
2023-05-05T02:05:27.900Z,6.18
2023-05-05T02:06:27.881Z,6.08
2023-05-05T02:07:27.928Z,6.01
2023-05-05T02:08:27.894Z,6.06
2023-05-05T02:09:27.921Z,6.05
2023-05-05T02:10:27.920Z,6.13
2023-05-05T02:11:27.974Z,6.05
2023-05-05T02:12:27.923Z,5.94
2023-05-05T02:13:28.012Z,6.07
2023-05-05T02:14:27.971Z,6.04
2023-05-05T02:15:27.988Z,6.07
2023-05-05T02:16:27.990Z,6.10
2023-05-05T02:17:28.012Z,6.11
2023-05-05T02:18:27.998Z,6.01
2023-05-05T02:19:28.032Z,6.01
2023-05-05T02:20:28.000Z,5.84
2023-05-05T02:21:28.028Z,6.03
2023-05-05T02:22:28.056Z,5.86
2023-05-05T02:23:28.459Z,5.97
2023-05-05T02:24:28.078Z,6.01
2023-05-05T02:25:28.076Z,6.08
2023-05-05T02:26:28.122Z,5.98
2023-05-05T02:27:28.103Z,5.89
2023-05-05T02:28:28.158Z,5.93
2023-05-05T02:29:28.159Z,5.94
2023-05-05T02:30:28.198Z,5.86
2023-05-05T02:31:28.242Z,5.93
2023-05-05T02:32:28.213Z,5.90
2023-05-05T02:33:28.201Z,5.89
2023-05-05T02:34:28.212Z,5.86
2023-05-05T02:35:28.237Z,5.87
2023-05-05T02:36:28.321Z,5.80
2023-05-05T02:37:28.257Z,5.83
2023-05-05T02:38:28.267Z,5.76
2023-05-05T02:39:28.293Z,5.76
2023-05-05T02:40:28.347Z,5.84
2023-05-05T02:41:28.318Z,5.79
2023-05-05T02:42:28.318Z,5.75
2023-05-05T02:43:28.318Z,5.73
2023-05-05T02:44:28.357Z,5.82
2023-05-05T02:45:28.362Z,5.74
2023-05-05T02:46:28.440Z,5.73
2023-05-05T02:47:28.424Z,5.71
2023-05-05T02:48:28.422Z,5.68
2023-05-05T02:49:28.429Z,5.57
2023-05-05T02:50:28.445Z,5.69
2023-05-05T02:51:28.483Z,5.66
2023-05-05T02:52:28.468Z,5.64
2023-05-05T02:53:28.489Z,5.68
2023-05-05T02:54:28.505Z,5.70
2023-05-05T02:55:28.513Z,5.69
2023-05-05T02:56:28.541Z,5.60
2023-05-05T02:57:28.545Z,5.63
2023-05-05T02:58:28.617Z,5.64
2023-05-05T02:59:28.584Z,5.56
2023-05-05T03:00:28.615Z,5.65
2023-05-05T03:01:28.688Z,5.54
2023-05-05T03:02:28.706Z,5.43
2023-05-05T03:03:28.792Z,5.64
2023-05-05T03:04:28.673Z,5.60
2023-05-05T03:05:28.712Z,5.60
2023-05-05T03:06:28.720Z,5.63
2023-05-05T03:07:28.711Z,5.57
2023-05-05T03:08:28.749Z,5.58
2023-05-05T03:09:28.762Z,5.47
2023-05-05T03:10:28.753Z,5.50
2023-05-05T03:11:28.798Z,5.43
2023-05-05T03:12:28.827Z,5.45
2023-05-05T03:13:28.837Z,5.42
2023-05-05T03:14:29.570Z,5.48
2023-05-05T03:15:28.880Z,5.47
2023-05-05T03:16:28.888Z,5.52
2023-05-05T03:17:28.950Z,5.39
2023-05-05T03:18:28.926Z,5.41
2023-05-05T03:19:28.955Z,5.38
2023-05-05T03:20:28.963Z,5.50
2023-05-05T03:21:28.984Z,5.37
2023-05-05T03:22:28.994Z,5.40
2023-05-05T03:23:29.030Z,5.32
2023-05-05T03:24:29.059Z,5.39
2023-05-05T03:25:29.081Z,5.29
2023-05-05T03:26:29.091Z,5.26
2023-05-05T03:27:29.126Z,5.31
2023-05-05T03:28:29.174Z,5.32
2023-05-05T03:29:29.179Z,5.31
2023-05-05T03:30:29.188Z,5.32
2023-05-05T03:31:29.248Z,5.28
2023-05-05T03:32:29.257Z,5.24
2023-05-05T03:33:29.419Z,5.29
2023-05-05T03:34:29.267Z,5.35
2023-05-05T03:35:29.315Z,5.33
2023-05-05T03:36:29.616Z,5.34
2023-05-05T03:37:29.344Z,5.21
2023-05-05T03:38:29.371Z,5.29
2023-05-05T03:39:29.380Z,5.29
2023-05-05T03:40:40.454Z,5.26
2023-05-05T03:41:30.387Z,5.27
2023-05-05T03:42:29.392Z,5.27
2023-05-05T03:43:29.388Z,5.28
2023-05-05T03:44:29.378Z,5.29
2023-05-05T03:45:29.403Z,5.30
2023-05-05T03:46:29.399Z,5.31
2023-05-05T03:47:29.355Z,5.16
2023-05-05T03:48:29.355Z,5.22
2023-05-05T03:49:29.322Z,5.30
2023-05-05T03:50:29.324Z,5.18
2023-05-05T03:51:29.358Z,5.18
2023-05-05T03:52:29.307Z,5.19
2023-05-05T03:53:29.345Z,5.14
2023-05-05T03:54:29.297Z,5.05
2023-05-05T03:55:29.280Z,5.14
2023-05-05T03:56:29.292Z,5.04
2023-05-05T03:57:29.323Z,5.15
2023-05-05T03:58:29.337Z,5.13
2023-05-05T03:59:29.365Z,5.04
2023-05-05T04:00:29.385Z,5.05
2023-05-05T04:01:29.414Z,5.11
2023-05-05T04:02:29.457Z,4.99
2023-05-05T04:03:29.507Z,5.02
2023-05-05T04:04:29.553Z,5.12
2023-05-05T04:05:29.503Z,5.05
2023-05-05T04:06:29.536Z,5.00
2023-05-05T04:07:29.525Z,5.06
2023-05-05T04:08:29.585Z,4.97
2023-05-05T04:09:29.579Z,4.88
2023-05-05T04:10:29.714Z,4.94
2023-05-05T04:11:29.659Z,4.97
2023-05-05T04:12:29.661Z,5.02
2023-05-05T04:13:29.699Z,4.87
2023-05-05T04:14:29.699Z,4.99
2023-05-05T04:15:29.733Z,4.99
2023-05-05T04:16:29.806Z,5.04
2023-05-05T04:17:29.834Z,4.99
2023-05-05T04:18:29.823Z,4.95
2023-05-05T04:19:29.840Z,4.99
2023-05-05T04:20:29.862Z,4.97
2023-05-05T04:21:29.916Z,4.91
2023-05-05T04:22:29.923Z,4.95
2023-05-05T04:23:29.971Z,4.96
2023-05-05T04:24:29.989Z,4.86
2023-05-05T04:25:29.994Z,4.90
2023-05-05T04:26:30.008Z,4.81
2023-05-05T04:27:30.058Z,4.90
2023-05-05T04:28:30.062Z,4.81
2023-05-05T04:29:30.084Z,4.82
2023-05-05T04:30:30.149Z,4.79
2023-05-05T04:31:30.577Z,4.79
2023-05-05T04:32:30.215Z,4.84
2023-05-05T04:33:30.202Z,4.84
2023-05-05T04:34:30.266Z,4.83
2023-05-05T04:35:30.280Z,4.79
2023-05-05T04:36:30.264Z,4.82
2023-05-05T04:37:30.313Z,4.82
2023-05-05T04:38:30.455Z,4.82
2023-05-05T04:39:30.433Z,4.82
2023-05-05T04:40:30.418Z,4.74
2023-05-05T04:41:30.487Z,4.73
2023-05-05T04:42:30.470Z,4.78
2023-05-05T04:43:30.487Z,4.76
2023-05-05T04:44:30.518Z,4.72
2023-05-05T04:45:30.531Z,4.72
2023-05-05T04:46:30.563Z,4.70
2023-05-05T04:47:30.604Z,4.57
2023-05-05T04:48:30.609Z,4.70
2023-05-05T04:49:31.498Z,4.78
2023-05-05T04:50:30.622Z,4.55
2023-05-05T04:51:30.976Z,4.73
2023-05-05T04:52:30.701Z,4.58
2023-05-05T04:53:30.695Z,4.66
2023-05-05T04:54:30.743Z,4.72
2023-05-05T04:55:30.743Z,4.70
2023-05-05T04:56:30.803Z,4.62
2023-05-05T04:57:30.798Z,4.62
2023-05-05T04:58:30.983Z,4.52
2023-05-05T04:59:30.836Z,4.70
2023-05-05T05:00:30.857Z,4.51
2023-05-05T05:01:30.913Z,4.60
2023-05-05T05:02:30.960Z,4.64
2023-05-05T05:03:31.050Z,4.56
2023-05-05T05:04:30.974Z,4.56
2023-05-05T05:05:30.984Z,4.64
2023-05-05T05:06:30.993Z,4.53
2023-05-05T05:07:30.993Z,4.54
2023-05-05T05:08:31.028Z,4.47
2023-05-05T05:09:31.026Z,4.48
2023-05-05T05:10:31.103Z,4.56
2023-05-05T05:11:31.087Z,4.53
2023-05-05T05:12:31.129Z,4.50
2023-05-05T05:13:31.124Z,4.57
2023-05-05T05:14:31.137Z,4.50
2023-05-05T05:15:31.170Z,4.52
2023-05-05T05:16:31.212Z,4.45
2023-05-05T05:17:31.252Z,4.52
2023-05-05T05:18:31.259Z,4.51
2023-05-05T05:19:31.267Z,4.54
2023-05-05T05:20:31.260Z,4.47
2023-05-05T05:21:31.246Z,4.51
2023-05-05T05:22:31.260Z,4.40
2023-05-05T05:23:31.296Z,4.39
2023-05-05T05:24:31.321Z,4.42
2023-05-05T05:25:31.345Z,4.40
2023-05-05T05:26:31.365Z,4.45
2023-05-05T05:27:31.366Z,4.39
2023-05-05T05:28:31.385Z,4.43
2023-05-05T05:29:31.450Z,4.34
2023-05-05T05:30:31.422Z,4.40
2023-05-05T05:31:31.528Z,4.36
2023-05-05T05:32:31.492Z,4.41
2023-05-05T05:33:31.484Z,4.36
2023-05-05T05:34:31.500Z,4.35
2023-05-05T05:35:31.524Z,4.31
2023-05-05T05:36:31.521Z,4.37
2023-05-05T05:37:31.551Z,4.42
2023-05-05T05:38:31.546Z,4.54
2023-05-05T05:39:31.533Z,4.67
2023-05-05T05:40:31.564Z,4.68
2023-05-05T05:41:32.009Z,4.71
2023-05-05T05:42:31.528Z,5.06
2023-05-05T05:43:31.655Z,5.21
2023-05-05T05:44:31.514Z,5.41
2023-05-05T05:45:31.530Z,5.74
2023-05-05T05:46:31.674Z,5.74
2023-05-05T05:47:31.681Z,5.83
2023-05-05T05:48:31.717Z,6.11
2023-05-05T05:49:31.747Z,5.96
2023-05-05T05:50:31.795Z,6.13
2023-05-05T05:51:31.888Z,6.43
2023-05-05T05:52:31.916Z,6.67
2023-05-05T05:53:32.004Z,6.84
2023-05-05T05:54:32.060Z,7.00
2023-05-05T05:55:32.142Z,7.26
2023-05-05T05:56:32.206Z,7.33
2023-05-05T05:57:32.236Z,7.23
2023-05-05T05:58:32.232Z,7.50
2023-05-05T05:59:32.284Z,7.48
2023-05-05T06:00:32.333Z,7.33
2023-05-05T06:01:32.438Z,7.44
2023-05-05T06:02:32.461Z,7.55
2023-05-05T06:03:32.550Z,7.60
2023-05-05T06:04:32.554Z,7.59
2023-05-05T06:05:32.649Z,7.44
2023-05-05T06:06:33.005Z,7.57
2023-05-05T06:07:32.589Z,7.39
2023-05-05T06:08:33.012Z,7.39
2023-05-05T06:09:32.706Z,7.50
2023-05-05T06:10:33.038Z,7.48
2023-05-05T06:11:32.763Z,7.45
2023-05-05T06:12:32.838Z,7.37
2023-05-05T06:13:32.790Z,7.37
2023-05-05T06:14:32.851Z,7.51
2023-05-05T06:15:32.808Z,7.42
2023-05-05T06:16:33.074Z,7.56
2023-05-05T06:17:32.857Z,7.43
2023-05-05T06:18:32.869Z,7.37
2023-05-05T06:19:32.896Z,7.28
2023-05-05T06:20:32.909Z,7.29
2023-05-05T06:21:32.874Z,7.24
2023-05-05T06:22:32.946Z,7.12
2023-05-05T06:23:33.035Z,7.38
2023-05-05T06:24:32.968Z,7.36
2023-05-05T06:25:33.000Z,7.30
2023-05-05T06:26:33.040Z,7.07
2023-05-05T06:27:36.008Z,7.19
2023-05-05T06:28:33.655Z,7.26
2023-05-05T06:29:32.984Z,7.26
2023-05-05T06:30:33.004Z,7.23
2023-05-05T06:31:33.016Z,7.18
2023-05-05T06:32:33.015Z,7.18
2023-05-05T06:33:32.993Z,7.20
2023-05-05T06:34:32.946Z,7.11
2023-05-05T06:35:32.967Z,7.01
2023-05-05T06:36:33.026Z,7.06
2023-05-05T06:37:32.943Z,6.98
2023-05-05T06:38:33.038Z,7.00
2023-05-05T06:39:33.077Z,7.09
2023-05-05T06:40:32.946Z,7.06
2023-05-05T06:41:32.948Z,6.93
2023-05-05T06:42:32.913Z,6.91
2023-05-05T06:43:32.997Z,6.78
2023-05-05T06:44:32.885Z,6.96
2023-05-05T06:45:32.886Z,6.93
2023-05-05T06:46:32.871Z,6.80
2023-05-05T06:47:33.082Z,6.84
2023-05-05T06:48:32.865Z,6.77
2023-05-05T06:49:32.856Z,6.88
2023-05-05T06:50:32.849Z,6.74
2023-05-05T06:51:32.830Z,6.66
2023-05-05T06:52:32.830Z,6.75
2023-05-05T06:53:32.876Z,6.54
2023-05-05T06:54:32.813Z,6.53
2023-05-05T06:55:32.798Z,6.59
2023-05-05T06:56:32.818Z,6.63
2023-05-05T06:57:32.853Z,6.57
2023-05-05T06:58:32.784Z,6.66
2023-05-05T06:59:32.790Z,6.43
2023-05-05T07:00:32.811Z,6.50
2023-05-05T07:01:32.786Z,6.43
2023-05-05T07:02:32.758Z,6.45
2023-05-05T07:03:32.849Z,6.54
2023-05-05T07:04:32.788Z,6.31
2023-05-05T07:05:32.754Z,6.25
2023-05-05T07:06:32.751Z,6.34
2023-05-05T07:07:32.741Z,6.35
2023-05-05T07:08:33.058Z,6.49
2023-05-05T07:09:32.774Z,6.31
2023-05-05T07:10:32.704Z,6.33
2023-05-05T07:11:32.702Z,6.29
2023-05-05T07:12:32.776Z,6.25
2023-05-05T07:13:32.707Z,6.22
2023-05-05T07:14:32.660Z,6.22
2023-05-05T07:15:32.711Z,6.14
2023-05-05T07:16:32.760Z,6.23
2023-05-05T07:17:32.696Z,6.23
2023-05-05T07:18:32.731Z,6.18
2023-05-05T07:19:32.898Z,6.08
2023-05-05T07:20:32.652Z,6.06
2023-05-05T07:21:32.641Z,6.04
2023-05-05T07:22:32.626Z,6.07
2023-05-05T07:23:32.634Z,6.18
2023-05-05T07:24:32.627Z,6.08
2023-05-05T07:25:32.715Z,5.98
2023-05-05T07:26:32.599Z,6.07
2023-05-05T07:27:32.585Z,6.03
2023-05-05T07:28:32.613Z,5.92
2023-05-05T07:29:33.041Z,5.92
2023-05-05T07:30:32.603Z,5.93
2023-05-05T07:31:32.629Z,6.00
2023-05-05T07:32:32.602Z,5.95
2023-05-05T07:33:32.646Z,5.95
2023-05-05T07:34:33.139Z,5.94
2023-05-05T07:35:32.686Z,6.32
2023-05-05T07:36:32.760Z,7.37
2023-05-05T07:37:32.814Z,8.01
2023-05-05T07:38:32.862Z,8.05
2023-05-05T07:39:32.917Z,8.14
2023-05-05T07:40:32.978Z,8.50
2023-05-05T07:41:33.094Z,8.58
2023-05-05T07:42:33.112Z,8.89
2023-05-05T07:43:33.096Z,8.92
2023-05-05T07:44:33.116Z,9.42
2023-05-05T07:45:33.127Z,9.47
2023-05-05T07:46:33.180Z,9.78
2023-05-05T07:47:33.227Z,10.12
2023-05-05T07:48:33.173Z,10.45
2023-05-05T07:49:33.219Z,10.78
2023-05-05T07:50:33.219Z,11.28
2023-05-05T07:51:34.494Z,11.43
2023-05-05T07:52:45.408Z,11.91
2023-05-05T07:53:34.164Z,11.95
2023-05-05T07:54:33.271Z,12.06
2023-05-05T07:55:33.207Z,12.38
2023-05-05T07:56:33.157Z,12.70
2023-05-05T07:57:33.229Z,13.69
2023-05-05T07:58:33.153Z,14.10
2023-05-05T07:59:33.118Z,14.80
2023-05-05T08:00:33.180Z,14.86
2023-05-05T08:01:33.219Z,15.88
2023-05-05T08:02:33.412Z,16.21
2023-05-05T08:03:33.521Z,16.49
2023-05-05T08:04:33.423Z,17.23
2023-05-05T08:05:33.454Z,17.65
2023-05-05T08:06:33.477Z,18.86
2023-05-05T08:07:33.611Z,18.91
2023-05-05T08:08:33.604Z,19.77
2023-05-05T08:09:33.618Z,20.44
2023-05-05T08:10:33.657Z,20.61
2023-05-05T08:11:33.720Z,22.01
2023-05-05T08:12:33.872Z,22.32
2023-05-05T08:13:33.792Z,22.84
2023-05-05T08:14:33.749Z,22.75
2023-05-05T08:15:33.908Z,24.69
2023-05-05T08:16:33.879Z,27.13
2023-05-05T08:17:33.932Z,26.43
2023-05-05T08:18:33.872Z,26.42
2023-05-05T08:19:33.852Z,27.14
2023-05-05T08:20:33.871Z,28.73
2023-05-05T08:21:33.905Z,31.03
2023-05-05T08:22:33.923Z,40.53
2023-05-05T08:23:33.907Z,52.67
2023-05-05T08:24:33.964Z,60.54
2023-05-05T08:25:33.885Z,55.37
2023-05-05T08:26:33.890Z,47.89
2023-05-05T08:27:34.054Z,45.67
2023-05-05T08:28:33.927Z,45.68
2023-05-05T08:29:33.985Z,44.40
2023-05-05T08:30:33.966Z,47.25
2023-05-05T08:31:34.028Z,46.06
2023-05-05T08:32:34.079Z,46.56
2023-05-05T08:33:34.007Z,46.40
2023-05-05T08:34:34.053Z,43.64
2023-05-05T08:35:34.073Z,43.33
2023-05-05T08:36:34.089Z,43.09
2023-05-05T08:37:34.170Z,42.51
2023-05-05T08:38:34.190Z,40.66
2023-05-05T08:39:34.323Z,32.61
2023-05-05T08:40:34.280Z,23.47
2023-05-05T08:41:34.340Z,18.48
2023-05-05T08:42:38.790Z,18.85
2023-05-05T08:43:34.431Z,18.00
2023-05-05T08:44:35.047Z,17.46
2023-05-05T08:45:34.551Z,14.76
2023-05-05T08:46:34.426Z,13.84
2023-05-05T08:47:34.466Z,14.10
2023-05-05T08:48:34.359Z,14.27
2023-05-05T08:49:34.356Z,14.89
2023-05-05T08:50:34.430Z,15.04
2023-05-05T08:51:34.381Z,15.16
2023-05-05T08:52:34.582Z,15.18
2023-05-05T08:53:34.317Z,15.25
2023-05-05T08:54:34.559Z,15.02
2023-05-05T08:55:34.347Z,15.92
2023-05-05T08:56:34.336Z,16.05
2023-05-05T08:57:34.377Z,16.30
2023-05-05T08:58:34.575Z,16.62
2023-05-05T08:59:34.423Z,18.15
2023-05-05T09:00:34.389Z,17.85
2023-05-05T09:01:34.641Z,17.77
2023-05-05T09:02:34.461Z,17.81
2023-05-05T09:03:34.464Z,18.13
2023-05-05T09:04:34.419Z,18.98
2023-05-05T09:05:34.429Z,19.21
2023-05-05T09:06:34.394Z,18.78
2023-05-05T09:07:34.416Z,18.54
2023-05-05T09:08:34.440Z,19.44
2023-05-05T09:09:34.457Z,19.34
2023-05-05T09:10:34.506Z,19.01
2023-05-05T09:11:34.486Z,19.98
2023-05-05T09:12:34.632Z,18.99
2023-05-05T09:13:34.576Z,19.27
2023-05-05T09:14:34.709Z,20.42
2023-05-05T09:15:34.692Z,19.33
2023-05-05T09:16:34.844Z,20.48
2023-05-05T09:17:34.933Z,20.65
2023-05-05T09:18:34.880Z,20.33
2023-05-05T09:19:34.947Z,20.28
2023-05-05T09:20:34.971Z,20.45
2023-05-05T09:21:35.043Z,20.82
2023-05-05T09:22:35.091Z,20.33
2023-05-05T09:23:35.152Z,21.16
2023-05-05T09:24:35.255Z,21.26
2023-05-05T09:25:37.101Z,22.20
2023-05-05T09:26:35.331Z,21.11
2023-05-05T09:27:35.392Z,21.48
2023-05-05T09:28:35.472Z,22.45
2023-05-05T09:29:35.542Z,21.30
2023-05-05T09:30:35.604Z,21.34
2023-05-05T09:31:35.628Z,21.60
2023-05-05T09:32:35.932Z,20.90
2023-05-05T09:33:35.824Z,21.08
2023-05-05T09:34:35.820Z,19.66
2023-05-05T09:35:35.865Z,19.08
2023-05-05T09:36:35.937Z,19.10
2023-05-05T09:37:35.961Z,17.73
2023-05-05T09:38:36.041Z,17.79
2023-05-05T09:39:36.076Z,18.12
2023-05-05T09:40:36.138Z,17.78
2023-05-05T09:41:36.177Z,18.40
2023-05-05T09:42:36.186Z,18.81
2023-05-05T09:43:36.248Z,19.25
2023-05-05T09:44:36.585Z,19.93
2023-05-05T09:45:36.319Z,20.50
2023-05-05T09:46:36.417Z,20.99
2023-05-05T09:47:36.493Z,21.77
2023-05-05T09:48:36.495Z,22.45
2023-05-05T09:49:36.724Z,24.94
2023-05-05T09:50:36.536Z,26.41
2023-05-05T09:51:36.597Z,25.66
2023-05-05T09:52:36.681Z,25.15
2023-05-05T09:53:36.691Z,23.49
2023-05-05T09:54:36.705Z,21.79
2023-05-05T09:55:36.768Z,22.02
2023-05-05T09:56:36.815Z,20.67
2023-05-05T09:57:36.887Z,19.26
2023-05-05T09:58:36.933Z,18.40
2023-05-05T09:59:36.944Z,17.37
2023-05-05T10:00:37.000Z,16.09
2023-05-05T10:01:37.067Z,16.41
2023-05-05T10:02:37.126Z,15.93
2023-05-05T10:03:37.119Z,14.64
2023-05-05T10:04:37.198Z,14.34
2023-05-05T10:05:37.267Z,13.79
2023-05-05T10:06:37.275Z,12.96
2023-05-05T10:07:37.325Z,13.12
2023-05-05T10:08:37.387Z,12.05
2023-05-05T10:09:37.395Z,13.08
2023-05-05T10:10:37.465Z,13.26
2023-05-05T10:11:37.542Z,12.79
2023-05-05T10:12:37.664Z,13.27
2023-05-05T10:13:37.595Z,13.66
2023-05-05T10:14:37.668Z,13.62
2023-05-05T10:15:37.737Z,13.89
2023-05-05T10:16:37.759Z,14.36
2023-05-05T10:17:37.852Z,15.05
2023-05-05T10:18:37.856Z,15.11
2023-05-05T10:19:37.887Z,15.56
2023-05-05T10:20:38.081Z,15.93
2023-05-05T10:21:38.989Z,16.38
2023-05-05T10:22:38.013Z,16.62
2023-05-05T10:23:38.070Z,16.90
2023-05-05T10:24:38.124Z,17.55
2023-05-05T10:25:38.141Z,17.63
2023-05-05T10:26:38.184Z,16.30
2023-05-05T10:27:38.255Z,14.69
2023-05-05T10:28:38.659Z,15.78
2023-05-05T10:29:38.333Z,15.82
2023-05-05T10:30:38.354Z,14.83
2023-05-05T10:31:38.422Z,15.09
2023-05-05T10:33:38.589Z,14.22
2023-05-05T10:34:38.542Z,14.55
2023-05-05T10:35:38.494Z,14.94
2023-05-05T10:36:38.452Z,15.30
2023-05-05T10:37:38.592Z,15.25
2023-05-05T10:38:38.475Z,15.06
2023-05-05T10:39:38.420Z,14.98
2023-05-05T10:40:38.428Z,14.29
2023-05-05T10:41:38.417Z,14.86
2023-05-05T10:42:38.399Z,14.43
2023-05-05T10:43:38.594Z,14.71
2023-05-05T10:44:38.603Z,14.27
2023-05-05T10:45:38.437Z,14.57
2023-05-05T10:46:38.468Z,14.72
2023-05-05T10:47:38.444Z,14.65
2023-05-05T10:48:38.428Z,14.32
2023-05-05T10:49:38.629Z,14.27
2023-05-05T10:50:38.346Z,13.95
2023-05-05T10:51:40.397Z,14.41
2023-05-05T10:52:38.371Z,14.42
2023-05-05T10:53:38.438Z,14.44
2023-05-05T10:54:38.700Z,14.08
2023-05-05T10:55:38.383Z,14.19
2023-05-05T10:56:38.365Z,14.74
2023-05-05T10:57:38.370Z,14.25
2023-05-05T10:58:51.028Z,14.05
2023-05-05T10:59:39.402Z,14.08
2023-05-05T11:00:38.419Z,14.01
2023-05-05T11:01:38.422Z,13.60
2023-05-05T11:02:38.405Z,14.21
2023-05-05T11:03:38.403Z,14.13
2023-05-05T11:04:38.369Z,13.73
2023-05-05T11:05:38.365Z,13.65
2023-05-05T11:06:38.353Z,13.88
2023-05-05T11:07:38.338Z,13.64
2023-05-05T11:08:38.373Z,12.82
2023-05-05T11:09:38.421Z,13.57
2023-05-05T11:10:38.367Z,13.33
2023-05-05T11:11:38.296Z,13.22
2023-05-05T11:12:39.012Z,13.60
2023-05-05T11:13:38.334Z,13.52
2023-05-05T11:14:38.302Z,12.98
2023-05-05T11:15:38.310Z,13.14
2023-05-05T11:16:38.321Z,13.10
2023-05-05T11:17:38.293Z,13.34
2023-05-05T11:18:38.277Z,12.40
2023-05-05T11:19:38.341Z,13.06
2023-05-05T11:20:38.242Z,12.90
2023-05-05T11:21:38.286Z,13.11
2023-05-05T11:22:38.323Z,12.31
2023-05-05T11:23:38.664Z,12.58
2023-05-05T11:24:38.351Z,12.30
2023-05-05T11:25:38.564Z,12.91
2023-05-05T11:26:38.402Z,12.45
2023-05-05T11:27:38.431Z,12.35
2023-05-05T11:28:38.508Z,12.42
2023-05-05T11:29:38.544Z,12.43
2023-05-05T11:30:38.495Z,12.01
2023-05-05T11:31:38.647Z,12.03
2023-05-05T11:32:38.591Z,12.20
2023-05-05T11:33:38.605Z,11.87
2023-05-05T11:34:38.615Z,11.99
2023-05-05T11:35:38.680Z,12.20
2023-05-05T11:36:38.690Z,12.03
2023-05-05T11:37:38.727Z,11.73
2023-05-05T11:38:38.742Z,11.72
2023-05-05T11:39:38.756Z,11.75
2023-05-05T11:40:38.814Z,11.48
2023-05-05T11:41:38.835Z,11.81
2023-05-05T11:42:38.861Z,11.39
2023-05-05T11:43:38.974Z,11.62
2023-05-05T11:44:38.949Z,11.49
2023-05-05T11:45:38.968Z,11.63
2023-05-05T11:46:39.030Z,11.37
2023-05-05T11:47:39.074Z,11.30
2023-05-05T11:48:39.075Z,11.34
2023-05-05T11:49:39.098Z,11.31
2023-05-05T11:50:39.159Z,11.13
2023-05-05T11:51:39.168Z,11.18
2023-05-05T11:52:39.234Z,11.15
2023-05-05T11:53:39.255Z,11.04
2023-05-05T11:54:39.293Z,11.16
2023-05-05T11:55:39.324Z,10.82
2023-05-05T11:56:39.368Z,10.63
2023-05-05T11:57:39.451Z,10.77
2023-05-05T11:58:39.461Z,10.67
2023-05-05T11:59:39.485Z,10.84
2023-05-05T12:00:39.563Z,10.86
2023-05-05T12:01:39.582Z,10.79
2023-05-05T12:02:39.654Z,10.73
2023-05-05T12:03:39.789Z,10.88
2023-05-05T12:04:39.740Z,10.88
2023-05-05T12:05:39.770Z,10.83
2023-05-05T12:06:39.775Z,10.73
2023-05-05T12:07:39.822Z,10.80
2023-05-05T12:08:39.863Z,10.64
2023-05-05T12:09:39.942Z,10.73
2023-05-05T12:10:39.962Z,10.59
2023-05-05T12:11:39.995Z,10.54
2023-05-05T12:12:40.172Z,10.49
2023-05-05T12:13:40.195Z,10.48
2023-05-05T12:14:40.127Z,10.21
2023-05-05T12:15:40.173Z,10.32
2023-05-05T12:16:40.245Z,10.22
2023-05-05T12:17:40.348Z,10.11
2023-05-05T12:18:40.302Z,10.09
2023-05-05T12:19:40.378Z,10.06
2023-05-05T12:20:40.388Z,10.09
2023-05-05T12:21:40.428Z,10.06
2023-05-05T12:22:40.504Z,10.07
2023-05-05T12:23:40.557Z,9.86
2023-05-05T12:24:40.579Z,10.01
2023-05-05T12:25:40.637Z,9.92
2023-05-05T12:26:40.673Z,9.67
2023-05-05T12:27:40.707Z,9.83
2023-05-05T12:28:40.754Z,9.78
2023-05-05T12:29:40.787Z,9.77
2023-05-05T12:30:40.873Z,9.50
2023-05-05T12:31:40.887Z,9.59
2023-05-05T12:32:40.963Z,9.68
2023-05-05T12:33:40.978Z,9.43
2023-05-05T12:34:41.015Z,9.59
2023-05-05T12:35:41.105Z,9.46
2023-05-05T12:36:41.111Z,9.29
2023-05-05T12:37:41.181Z,9.38
2023-05-05T12:38:41.207Z,9.19
2023-05-05T12:39:41.234Z,9.30
2023-05-05T12:40:41.284Z,9.16
2023-05-05T12:41:41.317Z,9.18
2023-05-05T12:42:41.384Z,9.38
2023-05-05T12:43:41.409Z,9.11
2023-05-05T12:44:41.481Z,9.04
2023-05-05T12:45:41.564Z,8.95
2023-05-05T12:46:41.547Z,9.08
2023-05-05T12:47:41.600Z,8.98
2023-05-05T12:48:41.674Z,8.89
2023-05-05T12:49:41.671Z,8.83
2023-05-05T12:50:41.729Z,8.82
2023-05-05T12:51:41.760Z,8.74
2023-05-05T12:52:41.817Z,8.73
2023-05-05T12:53:41.848Z,8.67
2023-05-05T12:54:41.924Z,8.66
2023-05-05T12:55:41.948Z,8.65
2023-05-05T12:56:42.013Z,8.50
2023-05-05T12:57:42.083Z,8.46
2023-05-05T12:58:42.093Z,8.56
2023-05-05T12:59:42.150Z,8.59
2023-05-05T13:00:42.196Z,8.47
2023-05-05T13:01:42.297Z,8.52
2023-05-05T13:02:42.433Z,8.50
2023-05-05T13:03:42.528Z,8.37
2023-05-05T13:04:42.396Z,8.30
2023-05-05T13:05:42.436Z,8.22
2023-05-05T13:06:42.472Z,8.23
2023-05-05T13:07:42.576Z,8.18
2023-05-05T13:08:42.583Z,8.19
2023-05-05T13:09:42.635Z,8.12
2023-05-05T13:10:42.678Z,8.20